sensor_id;sensor_type;location;lat;lon;timestamp;P1;durP1;ratioP1;P2;durP2;ratioP2
42384;SDS011;28042;43.986;22.860;2023-07-13T00:02:05;8.40;;;5.90;;
42384;SDS011;28042;43.986;22.860;2023-07-13T00:04:31;7.90;;;5.47;;
42384;SDS011;28042;43.986;22.860;2023-07-13T00:06:57;8.35;;;6.00;;
42384;SDS011;28042;43.986;22.860;2023-07-13T00:09:22;10.70;;;6.18;;
42384;SDS011;28042;43.986;22.860;2023-07-13T00:11:54;7.68;;;4.95;;
42384;SDS011;28042;43.986;22.860;2023-07-13T00:14:21;6.90;;;5.28;;
42384;SDS011;28042;43.986;22.860;2023-07-13T00:16:48;9.05;;;5.80;;
42384;SDS011;28042;43.986;22.860;2023-07-13T00:19:14;9.45;;;5.82;;
42384;SDS011;28042;43.986;22.860;2023-07-13T00:21:40;13.38;;;5.68;;
42384;SDS011;28042;43.986;22.860;2023-07-13T00:24:06;9.00;;;5.27;;
42384;SDS011;28042;43.986;22.860;2023-07-13T00:26:33;7.68;;;5.28;;
42384;SDS011;28042;43.986;22.860;2023-07-13T00:28:59;10.20;;;5.95;;
42384;SDS011;28042;43.986;22.860;2023-07-13T00:31:25;7.40;;;5.55;;
42384;SDS011;28042;43.986;22.860;2023-07-13T00:33:50;11.23;;;5.60;;
42384;SDS011;28042;43.986;22.860;2023-07-13T00:36:16;8.60;;;5.78;;
42384;SDS011;28042;43.986;22.860;2023-07-13T00:38:42;9.75;;;6.15;;
42384;SDS011;28042;43.986;22.860;2023-07-13T00:41:08;9.38;;;6.38;;
42384;SDS011;28042;43.986;22.860;2023-07-13T00:43:35;8.40;;;5.65;;
42384;SDS011;28042;43.986;22.860;2023-07-13T00:49:00;12.07;;;6.57;;
42384;SDS011;28042;43.986;22.860;2023-07-13T00:54:19;11.02;;;6.60;;
42384;SDS011;28042;43.986;22.860;2023-07-13T00:56:48;13.98;;;7.22;;
42384;SDS011;28042;43.986;22.860;2023-07-13T00:59:17;14.40;;;7.07;;
42384;SDS011;28042;43.986;22.860;2023-07-13T01:01:45;12.13;;;7.65;;
42384;SDS011;28042;43.986;22.860;2023-07-13T01:04:11;12.65;;;7.05;;
42384;SDS011;28042;43.986;22.860;2023-07-13T01:06:37;13.98;;;7.63;;
42384;SDS011;28042;43.986;22.860;2023-07-13T01:09:04;11.20;;;7.03;;
42384;SDS011;28042;43.986;22.860;2023-07-13T01:11:31;8.60;;;6.47;;
42384;SDS011;28042;43.986;22.860;2023-07-13T01:13:57;11.95;;;8.55;;
42384;SDS011;28042;43.986;22.860;2023-07-13T01:16:26;11.07;;;8.70;;
42384;SDS011;28042;43.986;22.860;2023-07-13T01:18:55;15.00;;;7.20;;
42384;SDS011;28042;43.986;22.860;2023-07-13T01:21:25;12.90;;;7.47;;
42384;SDS011;28042;43.986;22.860;2023-07-13T01:23:52;13.15;;;8.32;;
42384;SDS011;28042;43.986;22.860;2023-07-13T01:26:17;11.25;;;7.57;;
42384;SDS011;28042;43.986;22.860;2023-07-13T01:28:43;10.60;;;7.63;;
42384;SDS011;28042;43.986;22.860;2023-07-13T01:31:09;17.05;;;8.18;;
42384;SDS011;28042;43.986;22.860;2023-07-13T01:33:36;15.68;;;8.45;;
42384;SDS011;28042;43.986;22.860;2023-07-13T01:36:03;15.57;;;8.75;;
42384;SDS011;28042;43.986;22.860;2023-07-13T01:38:28;19.20;;;9.52;;
42384;SDS011;28042;43.986;22.860;2023-07-13T01:40:54;12.75;;;8.63;;
42384;SDS011;28042;43.986;22.860;2023-07-13T01:43:20;15.85;;;8.32;;
42384;SDS011;28042;43.986;22.860;2023-07-13T01:45:46;13.65;;;8.65;;
42384;SDS011;28042;43.986;22.860;2023-07-13T01:48:12;12.32;;;8.73;;
42384;SDS011;28042;43.986;22.860;2023-07-13T01:50:38;12.57;;;8.00;;
42384;SDS011;28042;43.986;22.860;2023-07-13T01:53:04;11.60;;;8.10;;
42384;SDS011;28042;43.986;22.860;2023-07-13T01:55:29;12.48;;;7.78;;
42384;SDS011;28042;43.986;22.860;2023-07-13T02:00:22;12.50;;;7.40;;
42384;SDS011;28042;43.986;22.860;2023-07-13T02:02:49;14.32;;;7.88;;
42384;SDS011;28042;43.986;22.860;2023-07-13T02:05:15;14.27;;;7.78;;
42384;SDS011;28042;43.986;22.860;2023-07-13T02:07:41;12.25;;;8.15;;
42384;SDS011;28042;43.986;22.860;2023-07-13T02:10:07;14.50;;;8.48;;
42384;SDS011;28042;43.986;22.860;2023-07-13T02:12:34;16.95;;;8.35;;
42384;SDS011;28042;43.986;22.860;2023-07-13T02:14:59;12.63;;;8.40;;
42384;SDS011;28042;43.986;22.860;2023-07-13T02:17:26;12.00;;;7.55;;
42384;SDS011;28042;43.986;22.860;2023-07-13T02:19:52;14.35;;;7.63;;
42384;SDS011;28042;43.986;22.860;2023-07-13T02:22:18;13.98;;;9.02;;
42384;SDS011;28042;43.986;22.860;2023-07-13T02:24:43;11.73;;;7.85;;
42384;SDS011;28042;43.986;22.860;2023-07-13T02:27:09;13.90;;;7.78;;
42384;SDS011;28042;43.986;22.860;2023-07-13T02:29:35;11.52;;;7.85;;
42384;SDS011;28042;43.986;22.860;2023-07-13T02:32:00;16.95;;;8.75;;
42384;SDS011;28042;43.986;22.860;2023-07-13T02:34:25;13.52;;;7.53;;
42384;SDS011;28042;43.986;22.860;2023-07-13T02:36:51;11.55;;;7.93;;
42384;SDS011;28042;43.986;22.860;2023-07-13T02:39:16;10.85;;;8.18;;
42384;SDS011;28042;43.986;22.860;2023-07-13T02:41:42;12.25;;;8.35;;
42384;SDS011;28042;43.986;22.860;2023-07-13T02:44:07;10.65;;;7.57;;
42384;SDS011;28042;43.986;22.860;2023-07-13T02:46:34;11.60;;;8.13;;
42384;SDS011;28042;43.986;22.860;2023-07-13T02:49:00;17.42;;;8.15;;
42384;SDS011;28042;43.986;22.860;2023-07-13T02:51:26;20.73;;;8.25;;
42384;SDS011;28042;43.986;22.860;2023-07-13T02:53:52;13.63;;;8.27;;
42384;SDS011;28042;43.986;22.860;2023-07-13T02:56:22;20.55;;;8.05;;
42384;SDS011;28042;43.986;22.860;2023-07-13T02:58:49;12.90;;;8.07;;
42384;SDS011;28042;43.986;22.860;2023-07-13T03:01:15;15.68;;;9.02;;
42384;SDS011;28042;43.986;22.860;2023-07-13T03:03:44;13.45;;;8.10;;
42384;SDS011;28042;43.986;22.860;2023-07-13T03:06:11;11.98;;;8.57;;
42384;SDS011;28042;43.986;22.860;2023-07-13T03:08:38;16.50;;;8.10;;
42384;SDS011;28042;43.986;22.860;2023-07-13T03:11:04;23.50;;;9.63;;
42384;SDS011;28042;43.986;22.860;2023-07-13T03:13:40;17.33;;;8.40;;
42384;SDS011;28042;43.986;22.860;2023-07-13T03:16:07;14.48;;;8.75;;
42384;SDS011;28042;43.986;22.860;2023-07-13T03:18:33;29.33;;;9.93;;
42384;SDS011;28042;43.986;22.860;2023-07-13T03:20:59;15.10;;;8.95;;
42384;SDS011;28042;43.986;22.860;2023-07-13T03:23:24;14.63;;;9.52;;
42384;SDS011;28042;43.986;22.860;2023-07-13T03:25:50;11.48;;;8.55;;
42384;SDS011;28042;43.986;22.860;2023-07-13T03:28:26;13.20;;;9.07;;
42384;SDS011;28042;43.986;22.860;2023-07-13T03:30:58;15.20;;;9.35;;
42384;SDS011;28042;43.986;22.860;2023-07-13T03:33:31;16.42;;;9.57;;
42384;SDS011;28042;43.986;22.860;2023-07-13T03:35:57;17.65;;;9.18;;
42384;SDS011;28042;43.986;22.860;2023-07-13T03:38:22;17.48;;;8.55;;
42384;SDS011;28042;43.986;22.860;2023-07-13T03:40:48;17.30;;;8.82;;
42384;SDS011;28042;43.986;22.860;2023-07-13T03:43:14;18.92;;;9.10;;
42384;SDS011;28042;43.986;22.860;2023-07-13T03:45:39;17.80;;;8.40;;
42384;SDS011;28042;43.986;22.860;2023-07-13T03:48:05;14.68;;;8.73;;
42384;SDS011;28042;43.986;22.860;2023-07-13T03:50:30;15.45;;;8.25;;
42384;SDS011;28042;43.986;22.860;2023-07-13T03:52:57;10.30;;;6.97;;
42384;SDS011;28042;43.986;22.860;2023-07-13T03:55:23;15.00;;;7.40;;
42384;SDS011;28042;43.986;22.860;2023-07-13T03:57:53;18.50;;;8.20;;
42384;SDS011;28042;43.986;22.860;2023-07-13T04:00:24;18.02;;;7.85;;
42384;SDS011;28042;43.986;22.860;2023-07-13T04:02:50;12.68;;;9.05;;
42384;SDS011;28042;43.986;22.860;2023-07-13T04:05:16;13.18;;;8.60;;
42384;SDS011;28042;43.986;22.860;2023-07-13T04:07:41;16.08;;;9.13;;
42384;SDS011;28042;43.986;22.860;2023-07-13T04:10:07;16.15;;;9.25;;
42384;SDS011;28042;43.986;22.860;2023-07-13T04:12:33;11.13;;;8.52;;
42384;SDS011;28042;43.986;22.860;2023-07-13T04:14:58;10.45;;;7.82;;
42384;SDS011;28042;43.986;22.860;2023-07-13T04:17:24;13.68;;;7.78;;
42384;SDS011;28042;43.986;22.860;2023-07-13T04:19:49;11.70;;;7.50;;
42384;SDS011;28042;43.986;22.860;2023-07-13T04:22:15;14.68;;;7.68;;
42384;SDS011;28042;43.986;22.860;2023-07-13T04:24:40;12.88;;;7.05;;
42384;SDS011;28042;43.986;22.860;2023-07-13T04:27:06;12.30;;;6.82;;
42384;SDS011;28042;43.986;22.860;2023-07-13T04:29:32;15.02;;;6.60;;
42384;SDS011;28042;43.986;22.860;2023-07-13T04:31:57;20.60;;;8.27;;
42384;SDS011;28042;43.986;22.860;2023-07-13T04:34:23;13.43;;;7.53;;
42384;SDS011;28042;43.986;22.860;2023-07-13T04:36:49;17.60;;;7.60;;
42384;SDS011;28042;43.986;22.860;2023-07-13T04:39:15;16.30;;;7.30;;
42384;SDS011;28042;43.986;22.860;2023-07-13T04:41:41;18.33;;;7.30;;
42384;SDS011;28042;43.986;22.860;2023-07-13T04:44:06;22.70;;;7.57;;
42384;SDS011;28042;43.986;22.860;2023-07-13T04:46:31;37.05;;;8.80;;
42384;SDS011;28042;43.986;22.860;2023-07-13T04:48:57;28.55;;;7.43;;
42384;SDS011;28042;43.986;22.860;2023-07-13T04:51:23;19.53;;;7.90;;
42384;SDS011;28042;43.986;22.860;2023-07-13T04:53:49;31.48;;;7.15;;
42384;SDS011;28042;43.986;22.860;2023-07-13T04:56:14;49.97;;;9.88;;
42384;SDS011;28042;43.986;22.860;2023-07-13T04:58:40;34.83;;;8.13;;
42384;SDS011;28042;43.986;22.860;2023-07-13T05:01:05;21.77;;;7.47;;
42384;SDS011;28042;43.986;22.860;2023-07-13T05:03:31;15.05;;;7.43;;
42384;SDS011;28042;43.986;22.860;2023-07-13T05:05:58;27.37;;;7.20;;
42384;SDS011;28042;43.986;22.860;2023-07-13T05:08:29;21.30;;;7.13;;
42384;SDS011;28042;43.986;22.860;2023-07-13T05:10:54;23.38;;;8.15;;
42384;SDS011;28042;43.986;22.860;2023-07-13T05:13:20;24.45;;;9.20;;
42384;SDS011;28042;43.986;22.860;2023-07-13T05:15:56;23.45;;;8.65;;
42384;SDS011;28042;43.986;22.860;2023-07-13T05:18:23;18.77;;;8.60;;
42384;SDS011;28042;43.986;22.860;2023-07-13T05:20:58;13.70;;;7.43;;
42384;SDS011;28042;43.986;22.860;2023-07-13T05:23:24;22.48;;;8.07;;
42384;SDS011;28042;43.986;22.860;2023-07-13T05:25:49;16.65;;;8.43;;
42384;SDS011;28042;43.986;22.860;2023-07-13T05:28:15;11.40;;;7.47;;
42384;SDS011;28042;43.986;22.860;2023-07-13T05:30:44;18.52;;;7.55;;
42384;SDS011;28042;43.986;22.860;2023-07-13T05:33:11;16.77;;;8.93;;
42384;SDS011;28042;43.986;22.860;2023-07-13T05:35:37;17.20;;;9.07;;
42384;SDS011;28042;43.986;22.860;2023-07-13T05:38:02;16.83;;;8.82;;
42384;SDS011;28042;43.986;22.860;2023-07-13T05:40:28;22.52;;;9.70;;
42384;SDS011;28042;43.986;22.860;2023-07-13T05:42:53;23.33;;;10.85;;
42384;SDS011;28042;43.986;22.860;2023-07-13T05:45:18;21.58;;;10.75;;
42384;SDS011;28042;43.986;22.860;2023-07-13T05:47:44;14.82;;;9.48;;
42384;SDS011;28042;43.986;22.860;2023-07-13T05:50:09;14.82;;;9.07;;
42384;SDS011;28042;43.986;22.860;2023-07-13T05:52:35;20.77;;;9.10;;
42384;SDS011;28042;43.986;22.860;2023-07-13T05:55:00;21.45;;;9.82;;
42384;SDS011;28042;43.986;22.860;2023-07-13T05:57:26;14.88;;;9.20;;
42384;SDS011;28042;43.986;22.860;2023-07-13T05:59:51;22.10;;;9.52;;
42384;SDS011;28042;43.986;22.860;2023-07-13T06:02:18;25.42;;;9.45;;
42384;SDS011;28042;43.986;22.860;2023-07-13T06:04:43;17.23;;;8.95;;
42384;SDS011;28042;43.986;22.860;2023-07-13T06:07:09;16.27;;;8.32;;
42384;SDS011;28042;43.986;22.860;2023-07-13T06:09:34;13.77;;;9.77;;
42384;SDS011;28042;43.986;22.860;2023-07-13T06:11:59;14.35;;;9.30;;
42384;SDS011;28042;43.986;22.860;2023-07-13T06:14:25;13.13;;;9.88;;
42384;SDS011;28042;43.986;22.860;2023-07-13T06:16:52;16.35;;;10.07;;
42384;SDS011;28042;43.986;22.860;2023-07-13T06:19:17;16.42;;;9.63;;
42384;SDS011;28042;43.986;22.860;2023-07-13T06:21:43;14.13;;;9.23;;
42384;SDS011;28042;43.986;22.860;2023-07-13T06:24:08;18.92;;;8.55;;
42384;SDS011;28042;43.986;22.860;2023-07-13T06:26:34;16.65;;;8.60;;
42384;SDS011;28042;43.986;22.860;2023-07-13T06:28:59;12.90;;;7.85;;
42384;SDS011;28042;43.986;22.860;2023-07-13T06:31:24;13.45;;;7.40;;
42384;SDS011;28042;43.986;22.860;2023-07-13T06:33:50;12.85;;;7.82;;
42384;SDS011;28042;43.986;22.860;2023-07-13T06:36:15;24.00;;;8.00;;
42384;SDS011;28042;43.986;22.860;2023-07-13T06:38:41;17.15;;;7.95;;
42384;SDS011;28042;43.986;22.860;2023-07-13T06:41:07;13.43;;;7.97;;
42384;SDS011;28042;43.986;22.860;2023-07-13T06:43:33;14.13;;;6.85;;
42384;SDS011;28042;43.986;22.860;2023-07-13T06:45:59;22.38;;;7.38;;
42384;SDS011;28042;43.986;22.860;2023-07-13T06:48:24;14.13;;;6.93;;
42384;SDS011;28042;43.986;22.860;2023-07-13T06:50:50;10.63;;;6.68;;
42384;SDS011;28042;43.986;22.860;2023-07-13T06:53:17;15.90;;;7.57;;
42384;SDS011;28042;43.986;22.860;2023-07-13T06:55:43;61.80;;;8.52;;
42384;SDS011;28042;43.986;22.860;2023-07-13T06:58:10;10.60;;;7.18;;
42384;SDS011;28042;43.986;22.860;2023-07-13T07:00:35;15.15;;;6.63;;
42384;SDS011;28042;43.986;22.860;2023-07-13T07:03:01;11.30;;;6.85;;
42384;SDS011;28042;43.986;22.860;2023-07-13T07:05:26;20.38;;;7.57;;
42384;SDS011;28042;43.986;22.860;2023-07-13T07:07:53;13.40;;;6.90;;
42384;SDS011;28042;43.986;22.860;2023-07-13T07:10:20;11.55;;;7.00;;
42384;SDS011;28042;43.986;22.860;2023-07-13T07:12:46;11.70;;;6.90;;
42384;SDS011;28042;43.986;22.860;2023-07-13T07:15:11;16.17;;;6.72;;
42384;SDS011;28042;43.986;22.860;2023-07-13T07:17:37;18.47;;;7.27;;
42384;SDS011;28042;43.986;22.860;2023-07-13T07:20:03;10.75;;;6.93;;
42384;SDS011;28042;43.986;22.860;2023-07-13T07:22:29;15.40;;;6.65;;
42384;SDS011;28042;43.986;22.860;2023-07-13T07:24:55;17.50;;;7.13;;
42384;SDS011;28042;43.986;22.860;2023-07-13T07:27:21;16.08;;;7.00;;
42384;SDS011;28042;43.986;22.860;2023-07-13T07:29:47;13.57;;;7.40;;
42384;SDS011;28042;43.986;22.860;2023-07-13T07:32:13;15.20;;;7.15;;
42384;SDS011;28042;43.986;22.860;2023-07-13T07:34:38;19.10;;;6.70;;
42384;SDS011;28042;43.986;22.860;2023-07-13T07:37:03;13.02;;;7.47;;
42384;SDS011;28042;43.986;22.860;2023-07-13T07:39:29;14.65;;;7.40;;
42384;SDS011;28042;43.986;22.860;2023-07-13T07:41:55;13.02;;;7.32;;
42384;SDS011;28042;43.986;22.860;2023-07-13T07:44:20;20.52;;;7.85;;
42384;SDS011;28042;43.986;22.860;2023-07-13T07:46:46;13.77;;;7.57;;
42384;SDS011;28042;43.986;22.860;2023-07-13T07:49:11;15.20;;;7.55;;
42384;SDS011;28042;43.986;22.860;2023-07-13T07:51:37;14.40;;;6.90;;
42384;SDS011;28042;43.986;22.860;2023-07-13T07:54:04;14.63;;;6.82;;
42384;SDS011;28042;43.986;22.860;2023-07-13T07:56:30;15.07;;;6.45;;
42384;SDS011;28042;43.986;22.860;2023-07-13T07:58:57;13.63;;;7.20;;
42384;SDS011;28042;43.986;22.860;2023-07-13T08:01:22;13.10;;;6.18;;
42384;SDS011;28042;43.986;22.860;2023-07-13T08:03:48;10.65;;;6.20;;
42384;SDS011;28042;43.986;22.860;2023-07-13T08:06:14;11.15;;;5.72;;
42384;SDS011;28042;43.986;22.860;2023-07-13T08:08:39;16.27;;;7.00;;
42384;SDS011;28042;43.986;22.860;2023-07-13T08:11:05;10.95;;;6.55;;
42384;SDS011;28042;43.986;22.860;2023-07-13T08:13:32;17.05;;;6.70;;
42384;SDS011;28042;43.986;22.860;2023-07-13T08:15:58;19.48;;;7.10;;
42384;SDS011;28042;43.986;22.860;2023-07-13T08:18:24;13.17;;;6.33;;
42384;SDS011;28042;43.986;22.860;2023-07-13T08:20:50;15.63;;;5.95;;
42384;SDS011;28042;43.986;22.860;2023-07-13T08:23:15;13.93;;;6.45;;
42384;SDS011;28042;43.986;22.860;2023-07-13T08:25:42;18.80;;;6.18;;
42384;SDS011;28042;43.986;22.860;2023-07-13T08:28:07;17.83;;;6.25;;
42384;SDS011;28042;43.986;22.860;2023-07-13T08:30:33;14.90;;;5.43;;
42384;SDS011;28042;43.986;22.860;2023-07-13T08:32:58;15.23;;;5.30;;
42384;SDS011;28042;43.986;22.860;2023-07-13T08:35:24;11.88;;;5.75;;
42384;SDS011;28042;43.986;22.860;2023-07-13T08:37:51;15.18;;;6.00;;
42384;SDS011;28042;43.986;22.860;2023-07-13T08:40:16;11.30;;;5.28;;
42384;SDS011;28042;43.986;22.860;2023-07-13T08:42:53;14.23;;;5.32;;
42384;SDS011;28042;43.986;22.860;2023-07-13T08:48:01;14.43;;;6.10;;
42384;SDS011;28042;43.986;22.860;2023-07-13T08:50:31;13.40;;;5.32;;
42384;SDS011;28042;43.986;22.860;2023-07-13T08:53:01;43.67;;;7.47;;
42384;SDS011;28042;43.986;22.860;2023-07-13T08:55:33;17.58;;;6.28;;
42384;SDS011;28042;43.986;22.860;2023-07-13T08:58:09;15.30;;;6.30;;
42384;SDS011;28042;43.986;22.860;2023-07-13T09:03:25;14.10;;;5.75;;
42384;SDS011;28042;43.986;22.860;2023-07-13T09:05:58;16.15;;;6.05;;
42384;SDS011;28042;43.986;22.860;2023-07-13T09:11:08;12.07;;;5.78;;
42384;SDS011;28042;43.986;22.860;2023-07-13T09:16:41;18.05;;;6.25;;
42384;SDS011;28042;43.986;22.860;2023-07-13T09:19:11;13.20;;;5.65;;
42384;SDS011;28042;43.986;22.860;2023-07-13T09:21:44;13.40;;;5.22;;
42384;SDS011;28042;43.986;22.860;2023-07-13T09:26:57;8.70;;;4.75;;
42384;SDS011;28042;43.986;22.860;2023-07-13T09:29:27;14.88;;;5.32;;
42384;SDS011;28042;43.986;22.860;2023-07-13T09:31:55;18.40;;;6.10;;
42384;SDS011;28042;43.986;22.860;2023-07-13T09:34:23;14.30;;;5.30;;
42384;SDS011;28042;43.986;22.860;2023-07-13T09:36:50;11.95;;;5.30;;
42384;SDS011;28042;43.986;22.860;2023-07-13T09:39:29;21.00;;;4.82;;
42384;SDS011;28042;43.986;22.860;2023-07-13T09:42:12;7.75;;;4.18;;
42384;SDS011;28042;43.986;22.860;2023-07-13T09:47:15;7.45;;;3.75;;
42384;SDS011;28042;43.986;22.860;2023-07-13T09:49:43;11.30;;;3.90;;
42384;SDS011;28042;43.986;22.860;2023-07-13T09:52:12;11.68;;;3.83;;
42384;SDS011;28042;43.986;22.860;2023-07-13T09:54:43;12.25;;;3.92;;
42384;SDS011;28042;43.986;22.860;2023-07-13T09:57:13;11.40;;;3.78;;
42384;SDS011;28042;43.986;22.860;2023-07-13T09:59:48;13.98;;;4.18;;
42384;SDS011;28042;43.986;22.860;2023-07-13T10:05:04;10.80;;;4.38;;
42384;SDS011;28042;43.986;22.860;2023-07-13T10:07:42;16.83;;;4.07;;
42384;SDS011;28042;43.986;22.860;2023-07-13T10:10:14;9.30;;;4.30;;
42384;SDS011;28042;43.986;22.860;2023-07-13T10:12:41;12.30;;;4.35;;
42384;SDS011;28042;43.986;22.860;2023-07-13T10:15:19;12.38;;;4.57;;
42384;SDS011;28042;43.986;22.860;2023-07-13T10:17:47;10.77;;;3.90;;
42384;SDS011;28042;43.986;22.860;2023-07-13T10:20:14;10.48;;;4.47;;
42384;SDS011;28042;43.986;22.860;2023-07-13T10:23:02;12.65;;;4.30;;
42384;SDS011;28042;43.986;22.860;2023-07-13T10:25:37;16.63;;;4.55;;
42384;SDS011;28042;43.986;22.860;2023-07-13T10:28:11;9.35;;;4.25;;
42384;SDS011;28042;43.986;22.860;2023-07-13T10:30:46;8.48;;;3.83;;
42384;SDS011;28042;43.986;22.860;2023-07-13T10:33:13;19.13;;;4.43;;
42384;SDS011;28042;43.986;22.860;2023-07-13T10:35:40;15.00;;;3.87;;
42384;SDS011;28042;43.986;22.860;2023-07-13T10:38:12;8.88;;;3.92;;
42384;SDS011;28042;43.986;22.860;2023-07-13T10:45:53;11.43;;;3.90;;
42384;SDS011;28042;43.986;22.860;2023-07-13T10:50:48;8.00;;;4.03;;
42384;SDS011;28042;43.986;22.860;2023-07-13T11:01:08;8.65;;;3.35;;
42384;SDS011;28042;43.986;22.860;2023-07-13T11:03:32;8.50;;;3.87;;
42384;SDS011;28042;43.986;22.860;2023-07-13T11:06:11;15.05;;;3.88;;
42384;SDS011;28042;43.986;22.860;2023-07-13T11:21:33;29.95;;;4.80;;
42384;SDS011;28042;43.986;22.860;2023-07-13T11:24:03;9.50;;;3.70;;
42384;SDS011;28042;43.986;22.860;2023-07-13T11:29:33;6.90;;;4.00;;
42384;SDS011;28042;43.986;22.860;2023-07-13T11:32:20;12.73;;;4.22;;
42384;SDS011;28042;43.986;22.860;2023-07-13T11:34:48;8.90;;;3.78;;
42384;SDS011;28042;43.986;22.860;2023-07-13T11:37:15;7.30;;;3.40;;
42384;SDS011;28042;43.986;22.860;2023-07-13T11:39:44;9.50;;;3.53;;
42384;SDS011;28042;43.986;22.860;2023-07-13T11:42:12;14.98;;;4.30;;
42384;SDS011;28042;43.986;22.860;2023-07-13T11:44:45;7.75;;;4.00;;
42384;SDS011;28042;43.986;22.860;2023-07-13T11:47:20;9.50;;;3.88;;
42384;SDS011;28042;43.986;22.860;2023-07-13T11:49:51;7.35;;;3.65;;
42384;SDS011;28042;43.986;22.860;2023-07-13T11:52:28;7.55;;;3.60;;
42384;SDS011;28042;43.986;22.860;2023-07-13T11:55:00;11.30;;;3.85;;
42384;SDS011;28042;43.986;22.860;2023-07-13T11:57:33;11.05;;;4.03;;
42384;SDS011;28042;43.986;22.860;2023-07-13T12:00:11;14.27;;;4.70;;
42384;SDS011;28042;43.986;22.860;2023-07-13T12:02:44;11.68;;;3.30;;
42384;SDS011;28042;43.986;22.860;2023-07-13T12:05:13;6.88;;;3.22;;
42384;SDS011;28042;43.986;22.860;2023-07-13T12:07:40;8.52;;;3.72;;
42384;SDS011;28042;43.986;22.860;2023-07-13T12:12:34;14.85;;;4.13;;
42384;SDS011;28042;43.986;22.860;2023-07-13T12:15:04;8.75;;;4.13;;
42384;SDS011;28042;43.986;22.860;2023-07-13T12:17:50;13.15;;;4.15;;
42384;SDS011;28042;43.986;22.860;2023-07-13T12:20:26;11.20;;;3.93;;
42384;SDS011;28042;43.986;22.860;2023-07-13T12:22:54;8.32;;;3.67;;
42384;SDS011;28042;43.986;22.860;2023-07-13T12:25:28;9.10;;;3.88;;
42384;SDS011;28042;43.986;22.860;2023-07-13T12:27:55;9.13;;;3.75;;
42384;SDS011;28042;43.986;22.860;2023-07-13T12:35:42;45.20;;;6.90;;
42384;SDS011;28042;43.986;22.860;2023-07-13T12:38:12;10.30;;;4.53;;
42384;SDS011;28042;43.986;22.860;2023-07-13T12:40:39;8.63;;;3.83;;
42384;SDS011;28042;43.986;22.860;2023-07-13T12:43:09;8.77;;;3.60;;
42384;SDS011;28042;43.986;22.860;2023-07-13T12:45:37;9.75;;;4.45;;
42384;SDS011;28042;43.986;22.860;2023-07-13T12:48:04;8.70;;;3.43;;
42384;SDS011;28042;43.986;22.860;2023-07-13T12:50:39;11.35;;;3.65;;
42384;SDS011;28042;43.986;22.860;2023-07-13T12:53:12;10.73;;;4.10;;
42384;SDS011;28042;43.986;22.860;2023-07-13T12:55:43;12.82;;;4.20;;
42384;SDS011;28042;43.986;22.860;2023-07-13T12:58:18;12.48;;;3.72;;
42384;SDS011;28042;43.986;22.860;2023-07-13T13:00:50;10.18;;;3.85;;
42384;SDS011;28042;43.986;22.860;2023-07-13T13:05:49;53.60;;;7.93;;
42384;SDS011;28042;43.986;22.860;2023-07-13T13:08:14;28.47;;;5.50;;
42384;SDS011;28042;43.986;22.860;2023-07-13T13:10:40;8.53;;;4.13;;
42384;SDS011;28042;43.986;22.860;2023-07-13T13:13:06;8.97;;;3.53;;
42384;SDS011;28042;43.986;22.860;2023-07-13T13:15:31;14.80;;;3.90;;
42384;SDS011;28042;43.986;22.860;2023-07-13T13:17:57;12.95;;;3.90;;
42384;SDS011;28042;43.986;22.860;2023-07-13T13:20:23;8.37;;;3.70;;
42384;SDS011;28042;43.986;22.860;2023-07-13T13:22:51;13.73;;;4.00;;
42384;SDS011;28042;43.986;22.860;2023-07-13T13:25:17;8.48;;;4.03;;
42384;SDS011;28042;43.986;22.860;2023-07-13T13:27:44;11.48;;;4.07;;
42384;SDS011;28042;43.986;22.860;2023-07-13T13:30:14;10.80;;;3.53;;
42384;SDS011;28042;43.986;22.860;2023-07-13T13:32:41;16.23;;;5.00;;
42384;SDS011;28042;43.986;22.860;2023-07-13T13:35:18;7.07;;;3.85;;
42384;SDS011;28042;43.986;22.860;2023-07-13T13:40:15;10.90;;;3.85;;
42384;SDS011;28042;43.986;22.860;2023-07-13T13:42:41;10.20;;;3.50;;
42384;SDS011;28042;43.986;22.860;2023-07-13T13:45:07;22.33;;;5.00;;
42384;SDS011;28042;43.986;22.860;2023-07-13T13:47:35;10.77;;;4.47;;
42384;SDS011;28042;43.986;22.860;2023-07-13T13:50:04;14.30;;;5.00;;
42384;SDS011;28042;43.986;22.860;2023-07-13T13:52:37;12.13;;;4.15;;
42384;SDS011;28042;43.986;22.860;2023-07-13T13:55:05;9.83;;;4.00;;
42384;SDS011;28042;43.986;22.860;2023-07-13T13:57:37;10.70;;;4.38;;
42384;SDS011;28042;43.986;22.860;2023-07-13T14:00:02;9.43;;;3.97;;
42384;SDS011;28042;43.986;22.860;2023-07-13T14:02:28;9.90;;;4.38;;
42384;SDS011;28042;43.986;22.860;2023-07-13T14:04:59;16.52;;;4.82;;
42384;SDS011;28042;43.986;22.860;2023-07-13T14:07:27;9.30;;;3.92;;
42384;SDS011;28042;43.986;22.860;2023-07-13T14:12:21;11.52;;;4.30;;
42384;SDS011;28042;43.986;22.860;2023-07-13T14:14:47;18.67;;;4.93;;
42384;SDS011;28042;43.986;22.860;2023-07-13T14:17:18;13.73;;;4.33;;
42384;SDS011;28042;43.986;22.860;2023-07-13T14:19:47;14.05;;;4.38;;
42384;SDS011;28042;43.986;22.860;2023-07-13T14:22:16;9.55;;;4.60;;
42384;SDS011;28042;43.986;22.860;2023-07-13T14:27:08;11.33;;;4.43;;
42384;SDS011;28042;43.986;22.860;2023-07-13T14:29:35;7.95;;;4.60;;
42384;SDS011;28042;43.986;22.860;2023-07-13T14:32:01;17.27;;;5.03;;
42384;SDS011;28042;43.986;22.860;2023-07-13T14:34:27;10.47;;;4.37;;
42384;SDS011;28042;43.986;22.860;2023-07-13T14:36:53;12.57;;;5.15;;
42384;SDS011;28042;43.986;22.860;2023-07-13T14:39:20;14.03;;;4.90;;
42384;SDS011;28042;43.986;22.860;2023-07-13T14:41:51;16.60;;;4.55;;
42384;SDS011;28042;43.986;22.860;2023-07-13T14:44:28;12.75;;;4.70;;
42384;SDS011;28042;43.986;22.860;2023-07-13T14:51:54;13.05;;;5.00;;
42384;SDS011;28042;43.986;22.860;2023-07-13T14:54:22;13.27;;;5.25;;
42384;SDS011;28042;43.986;22.860;2023-07-13T14:56:48;14.47;;;5.63;;
42384;SDS011;28042;43.986;22.860;2023-07-13T14:59:14;11.30;;;5.10;;
42384;SDS011;28042;43.986;22.860;2023-07-13T15:01:39;13.87;;;5.07;;
42384;SDS011;28042;43.986;22.860;2023-07-13T15:04:05;9.77;;;4.55;;
42384;SDS011;28042;43.986;22.860;2023-07-13T15:06:31;13.40;;;5.67;;
42384;SDS011;28042;43.986;22.860;2023-07-13T15:09:16;11.73;;;5.23;;
42384;SDS011;28042;43.986;22.860;2023-07-13T15:11:42;14.10;;;5.77;;
42384;SDS011;28042;43.986;22.860;2023-07-13T15:14:07;13.87;;;6.30;;
42384;SDS011;28042;43.986;22.860;2023-07-13T15:16:32;13.73;;;5.93;;
42384;SDS011;28042;43.986;22.860;2023-07-13T15:18:59;15.50;;;6.20;;
42384;SDS011;28042;43.986;22.860;2023-07-13T15:21:25;12.87;;;5.60;;
42384;SDS011;28042;43.986;22.860;2023-07-13T15:23:53;91.85;;;12.43;;
42384;SDS011;28042;43.986;22.860;2023-07-13T15:26:19;18.10;;;6.23;;
42384;SDS011;28042;43.986;22.860;2023-07-13T15:28:45;17.97;;;6.13;;
42384;SDS011;28042;43.986;22.860;2023-07-13T15:31:21;15.38;;;6.88;;
42384;SDS011;28042;43.986;22.860;2023-07-13T15:33:50;13.13;;;6.57;;
42384;SDS011;28042;43.986;22.860;2023-07-13T15:36:21;15.77;;;6.18;;
42384;SDS011;28042;43.986;22.860;2023-07-13T15:38:47;16.40;;;7.20;;
42384;SDS011;28042;43.986;22.860;2023-07-13T15:41:33;10.85;;;6.75;;
42384;SDS011;28042;43.986;22.860;2023-07-13T15:43:59;13.93;;;6.80;;
42384;SDS011;28042;43.986;22.860;2023-07-13T15:46:30;15.93;;;7.47;;
42384;SDS011;28042;43.986;22.860;2023-07-13T15:48:56;13.97;;;6.90;;